createdAt,value
2023-05-06T00:02:06.548Z,13.53
2023-05-06T00:04:33.621Z,13.49
2023-05-06T00:07:00.319Z,13.44
2023-05-06T00:09:27.481Z,13.41
2023-05-06T00:11:53.796Z,13.37
2023-05-06T00:14:20.346Z,13.36
2023-05-06T00:16:46.794Z,13.33
2023-05-06T00:19:13.483Z,13.31
2023-05-06T00:21:39.911Z,13.29
2023-05-06T00:24:06.617Z,13.28
2023-05-06T00:26:33.141Z,13.24
2023-05-06T00:28:59.734Z,13.19
2023-05-06T00:31:26.070Z,13.17
2023-05-06T00:33:52.413Z,13.16
2023-05-06T00:36:18.966Z,13.15
2023-05-06T00:38:45.448Z,13.15
2023-05-06T00:41:11.842Z,13.17
2023-05-06T00:43:38.326Z,13.17
2023-05-06T00:46:05.652Z,13.16
2023-05-06T00:48:32.163Z,13.15
2023-05-06T00:50:58.934Z,13.16
2023-05-06T00:53:25.407Z,13.17
2023-05-06T00:55:52.028Z,13.18
2023-05-06T00:58:20.034Z,13.17
2023-05-06T01:00:46.675Z,13.16
2023-05-06T01:03:13.120Z,13.15
2023-05-06T01:05:49.602Z,13.15
2023-05-06T01:08:37.145Z,13.15
2023-05-06T01:11:11.074Z,13.15
2023-05-06T01:13:49.471Z,13.15
2023-05-06T01:16:19.753Z,13.14
2023-05-06T01:18:47.522Z,13.15
2023-05-06T01:21:14.022Z,13.15
2023-05-06T01:23:55.019Z,13.14
2023-05-06T01:26:21.950Z,13.12
2023-05-06T01:28:48.346Z,13.12
2023-05-06T01:31:43.091Z,13.10
2023-05-06T01:34:18.080Z,13.09
2023-05-06T01:36:52.957Z,13.07
2023-05-06T01:39:26.437Z,13.05
2023-05-06T01:41:57.145Z,13.04
2023-05-06T01:44:24.216Z,13.05
2023-05-06T01:46:52.124Z,13.03
2023-05-06T01:49:19.593Z,13.01
2023-05-06T01:51:53.404Z,13.00
2023-05-06T01:54:20.189Z,12.99
2023-05-06T01:56:46.665Z,12.98
2023-05-06T01:59:14.620Z,12.95
2023-05-06T02:01:41.279Z,12.93
2023-05-06T02:04:07.822Z,12.91
2023-05-06T02:06:34.261Z,12.90
2023-05-06T02:09:00.987Z,12.90
2023-05-06T02:11:28.233Z,12.89
2023-05-06T02:14:01.409Z,12.88
2023-05-06T02:16:29.577Z,12.87
2023-05-06T02:18:56.225Z,12.87
2023-05-06T02:21:23.081Z,12.88
2023-05-06T02:23:49.984Z,12.87
2023-05-06T02:26:17.186Z,12.88
2023-05-06T02:28:43.731Z,12.90
2023-05-06T02:35:31.547Z,12.95
2023-05-06T02:37:58.505Z,12.95
2023-05-06T02:40:24.955Z,12.96
2023-05-06T02:42:52.163Z,12.98
2023-05-06T02:45:18.756Z,13.00
2023-05-06T02:47:45.465Z,13.02
2023-05-06T02:50:12.046Z,13.04
2023-05-06T02:52:38.486Z,13.04
2023-05-06T02:55:06.257Z,13.08
2023-05-06T02:57:32.914Z,13.09
2023-05-06T02:59:59.682Z,13.10
2023-05-06T03:02:26.793Z,13.11
2023-05-06T03:04:53.264Z,13.14
2023-05-06T03:07:19.666Z,13.17
2023-05-06T03:09:46.313Z,13.20
2023-05-06T03:12:12.893Z,13.22
2023-05-06T03:14:39.531Z,13.22
2023-05-06T03:17:05.938Z,13.22
2023-05-06T03:19:34.294Z,13.19
2023-05-06T03:22:01.416Z,13.16
2023-05-06T03:24:28.796Z,13.14
2023-05-06T03:26:57.749Z,13.12
2023-05-06T03:29:26.107Z,13.13
2023-05-06T03:31:55.724Z,13.14
2023-05-06T03:34:24.441Z,13.13
2023-05-06T03:36:51.131Z,13.13
2023-05-06T03:39:18.153Z,13.12
2023-05-06T03:41:45.262Z,13.10
2023-05-06T03:44:12.067Z,13.10
2023-05-06T03:46:41.052Z,13.09
2023-05-06T03:49:08.149Z,13.08
2023-05-06T03:51:35.063Z,13.08
2023-05-06T03:54:03.300Z,13.07
2023-05-06T03:56:31.853Z,13.05
2023-05-06T03:58:58.662Z,13.01
2023-05-06T04:01:25.756Z,12.97
2023-05-06T04:03:53.811Z,12.90
2023-05-06T04:06:20.586Z,12.85
2023-05-06T04:08:47.217Z,12.83
2023-05-06T04:11:14.035Z,13.01
2023-05-06T04:13:40.866Z,14.19
2023-05-06T04:16:12.251Z,15.42
2023-05-06T04:18:43.385Z,15.99
2023-05-06T04:21:11.940Z,15.54
2023-05-06T04:23:40.926Z,14.92
2023-05-06T04:26:07.806Z,14.47
2023-05-06T04:28:35.142Z,14.15
2023-05-06T04:31:02.726Z,13.90
2023-05-06T04:33:40.621Z,13.70
2023-05-06T04:36:10.113Z,13.52
2023-05-06T04:38:37.503Z,13.36
2023-05-06T04:41:05.733Z,13.22
2023-05-06T04:43:33.415Z,13.10
2023-05-06T04:46:06.734Z,12.96
2023-05-06T04:48:34.680Z,12.83
2023-05-06T04:51:03.617Z,12.94
2023-05-06T04:53:31.270Z,14.08
2023-05-06T04:55:58.391Z,15.08
2023-05-06T04:58:25.144Z,14.88
2023-05-06T05:00:51.793Z,14.31
2023-05-06T05:03:18.423Z,13.88
2023-05-06T05:05:46.181Z,13.57
2023-05-06T05:08:17.993Z,13.64
2023-05-06T05:10:45.287Z,14.82
2023-05-06T05:13:15.990Z,15.89
2023-05-06T05:15:43.286Z,16.37
2023-05-06T05:18:10.459Z,15.90
2023-05-06T05:20:37.757Z,15.30
2023-05-06T05:23:04.472Z,14.85
2023-05-06T05:25:31.794Z,14.54
2023-05-06T05:27:58.293Z,14.31
2023-05-06T05:30:26.255Z,14.12
2023-05-06T05:32:53.286Z,13.95
2023-05-06T05:35:20.149Z,13.78
2023-05-06T05:37:47.447Z,13.86
2023-05-06T05:40:14.145Z,14.95
2023-05-06T05:42:41.265Z,16.01
2023-05-06T05:45:14.315Z,16.79
2023-05-06T05:47:41.961Z,17.06
2023-05-06T05:50:09.546Z,16.42
2023-05-06T05:52:36.731Z,15.70
2023-05-06T05:55:04.382Z,15.15
2023-05-06T05:57:31.591Z,14.76
2023-05-06T05:59:58.046Z,14.51
2023-05-06T06:02:25.217Z,14.53
2023-05-06T06:04:52.402Z,15.54
2023-05-06T06:07:18.850Z,16.57
2023-05-06T06:09:48.140Z,17.09
2023-05-06T06:12:14.863Z,16.51
2023-05-06T06:14:41.289Z,15.79
2023-05-06T06:17:09.138Z,15.25
2023-05-06T06:19:35.950Z,14.84
2023-05-06T06:22:02.574Z,14.52
2023-05-06T06:24:34.027Z,14.26
2023-05-06T06:27:00.870Z,14.37
2023-05-06T06:29:28.390Z,15.46
2023-05-06T06:31:57.896Z,16.40
2023-05-06T06:34:24.542Z,17.02
2023-05-06T06:36:50.928Z,17.20
2023-05-06T06:39:17.417Z,16.61
2023-05-06T06:41:43.859Z,15.91
2023-05-06T06:44:10.649Z,15.37
2023-05-06T06:46:38.072Z,14.95
2023-05-06T06:49:04.607Z,14.57
2023-05-06T06:51:34.018Z,14.57
2023-05-06T06:54:00.886Z,15.62
2023-05-06T06:56:27.312Z,16.56
2023-05-06T06:58:53.861Z,16.93
2023-05-06T07:01:20.309Z,16.26
2023-05-06T07:03:46.811Z,15.56
2023-05-06T07:06:13.618Z,14.99
2023-05-06T07:08:40.176Z,14.54
2023-05-06T07:11:06.798Z,14.37
2023-05-06T07:13:33.295Z,15.34
2023-05-06T07:15:59.727Z,16.33
2023-05-06T07:18:26.277Z,17.00
2023-05-06T07:20:53.049Z,17.16
2023-05-06T07:23:20.761Z,16.48
2023-05-06T07:25:47.618Z,15.71
2023-05-06T07:28:14.937Z,15.12
2023-05-06T07:30:41.728Z,14.67
2023-05-06T07:33:08.353Z,14.55
2023-05-06T07:35:36.108Z,15.49
2023-05-06T07:38:02.899Z,16.52
2023-05-06T07:40:29.600Z,16.92
2023-05-06T07:42:56.355Z,16.35
2023-05-06T07:45:23.782Z,15.61
2023-05-06T07:47:50.854Z,15.01
2023-05-06T07:50:17.425Z,14.58
2023-05-06T07:52:44.006Z,14.23
2023-05-06T07:55:10.795Z,14.24
2023-05-06T07:57:37.558Z,15.38
2023-05-06T13:02:38.344Z,14.08
2023-05-06T13:05:08.140Z,15.40
2023-05-06T13:07:36.157Z,16.65
2023-05-06T13:10:06.094Z,17.49
2023-05-06T13:12:34.466Z,18.09
2023-05-06T13:15:02.621Z,18.62
2023-05-06T13:17:30.628Z,18.77
2023-05-06T13:19:58.496Z,18.12
2023-05-06T13:22:26.484Z,17.43
2023-05-06T13:24:54.543Z,16.91
2023-05-06T13:27:22.307Z,16.50
2023-05-06T13:29:50.104Z,16.21
2023-05-06T13:32:17.996Z,16.24
2023-05-06T13:34:46.712Z,17.20
2023-05-06T13:37:14.512Z,18.00
2023-05-06T13:39:42.216Z,18.50
2023-05-06T13:42:10.280Z,18.21
2023-05-06T13:44:39.315Z,17.40
2023-05-06T13:47:07.513Z,16.72
2023-05-06T13:49:35.352Z,16.17
2023-05-06T13:52:03.996Z,15.76
2023-05-06T13:54:32.550Z,15.70
2023-05-06T13:57:01.448Z,16.71
2023-05-06T13:59:29.407Z,17.61
2023-05-06T14:01:57.719Z,18.10
2023-05-06T14:04:25.682Z,18.39
2023-05-06T14:06:54.016Z,17.76
2023-05-06T14:09:22.052Z,16.96
2023-05-06T14:11:52.810Z,16.33
2023-05-06T14:14:20.677Z,15.86
2023-05-06T14:16:48.453Z,15.66
2023-05-06T14:19:16.373Z,16.44
2023-05-06T14:21:44.088Z,17.47
2023-05-06T14:24:12.564Z,18.30
2023-05-06T14:26:41.423Z,18.63
2023-05-06T14:29:09.311Z,17.91
2023-05-06T14:31:38.207Z,17.08
2023-05-06T14:34:07.555Z,16.42
2023-05-06T14:36:35.524Z,15.91
2023-05-06T14:39:03.503Z,15.52
2023-05-06T14:41:31.646Z,15.37
2023-05-06T14:43:59.587Z,16.41
2023-05-06T14:46:29.374Z,17.50
2023-05-06T14:48:57.673Z,18.02
2023-05-06T14:51:25.947Z,17.46
2023-05-06T14:53:53.671Z,16.73
2023-05-06T14:56:21.513Z,16.12
2023-05-06T14:58:49.273Z,15.63
2023-05-06T15:01:17.073Z,15.42
2023-05-06T15:03:45.299Z,16.19
2023-05-06T15:06:13.079Z,17.15
2023-05-06T15:08:41.134Z,17.92
2023-05-06T15:11:09.243Z,18.21
2023-05-06T15:13:37.150Z,17.58
2023-05-06T15:16:09.053Z,16.87
2023-05-06T15:18:38.696Z,16.35
2023-05-06T15:21:06.756Z,15.99
2023-05-06T15:23:34.563Z,15.87
2023-05-06T15:26:02.332Z,16.71
2023-05-06T15:28:30.300Z,17.60
2023-05-06T15:30:58.399Z,18.03
2023-05-06T15:33:26.330Z,17.46
2023-05-06T15:35:56.531Z,16.71
2023-05-06T15:38:24.328Z,16.11
2023-05-06T15:40:52.426Z,15.65
2023-05-06T15:43:23.622Z,15.29
2023-05-06T15:45:54.002Z,15.26
2023-05-06T15:48:23.366Z,16.22
2023-05-06T15:50:51.129Z,17.20
2023-05-06T15:53:19.336Z,17.91
2023-05-06T15:55:54.547Z,18.10
2023-05-06T15:58:25.741Z,17.34
2023-05-06T16:00:53.585Z,16.60
2023-05-06T16:03:21.546Z,16.03
2023-05-06T16:05:49.634Z,15.58
2023-05-06T16:08:17.523Z,15.24
2023-05-06T16:10:45.749Z,15.14
2023-05-06T16:13:13.800Z,15.85
2023-05-06T16:15:41.868Z,16.71
2023-05-06T16:18:10.755Z,17.41
2023-05-06T16:20:39.475Z,17.71
2023-05-06T16:23:07.379Z,17.16
2023-05-06T16:25:35.199Z,16.46
2023-05-06T16:28:03.551Z,15.92
2023-05-06T16:30:31.374Z,15.51
2023-05-06T16:32:59.164Z,15.33
2023-05-06T16:35:27.150Z,16.11
2023-05-06T16:37:54.949Z,17.09
2023-05-06T16:40:23.026Z,17.69
2023-05-06T16:42:52.136Z,17.36
2023-05-06T16:45:20.000Z,16.60
2023-05-06T16:47:48.571Z,15.96
2023-05-06T16:50:16.751Z,15.49
2023-05-06T16:52:47.431Z,15.10
2023-05-06T16:55:15.470Z,14.97
2023-05-06T16:57:43.198Z,15.89
2023-05-06T17:00:12.158Z,16.75
2023-05-06T17:02:40.728Z,17.35
2023-05-06T17:05:09.020Z,17.53
2023-05-06T17:07:36.844Z,16.86
2023-05-06T17:10:07.345Z,16.10
2023-05-06T17:12:35.199Z,15.50
2023-05-06T17:15:04.114Z,15.05
2023-05-06T17:17:32.838Z,14.69
2023-05-06T17:20:00.950Z,14.63
2023-05-06T17:22:28.806Z,15.56
2023-05-06T17:24:56.627Z,16.41
2023-05-06T17:27:24.677Z,16.79
2023-05-06T17:29:52.423Z,16.70
2023-05-06T17:32:20.389Z,16.09
2023-05-06T17:34:48.165Z,15.46
2023-05-06T17:37:15.950Z,14.95
2023-05-06T17:39:43.961Z,14.56
2023-05-06T17:42:12.142Z,14.47
2023-05-06T17:44:42.645Z,15.36
2023-05-06T17:47:11.024Z,16.27
2023-05-06T17:49:38.970Z,16.87
2023-05-06T17:52:06.937Z,17.02
2023-05-06T17:54:36.461Z,16.42
2023-05-06T17:57:05.828Z,15.77
2023-05-06T17:59:35.377Z,15.25
2023-05-06T18:02:04.048Z,14.86
2023-05-06T18:04:31.994Z,14.52
2023-05-06T18:06:59.920Z,14.47
2023-05-06T18:09:28.275Z,15.45
2023-05-06T18:11:56.424Z,16.38
2023-05-06T18:14:24.222Z,16.71
2023-05-06T18:16:52.145Z,16.17
2023-05-06T18:19:20.021Z,15.49
2023-05-06T18:21:47.932Z,14.98
2023-05-06T18:24:16.778Z,14.58
2023-05-06T18:26:46.195Z,14.23
2023-05-06T18:29:14.398Z,14.18
2023-05-06T18:31:42.686Z,15.00
2023-05-06T18:34:10.818Z,15.83
2023-05-06T18:36:41.401Z,16.44
2023-05-06T18:39:09.920Z,16.62
2023-05-06T18:41:38.518Z,16.05
2023-05-06T18:44:06.326Z,15.39
2023-05-06T18:46:34.186Z,14.88
2023-05-06T18:49:02.072Z,14.49
2023-05-06T18:51:29.999Z,14.30
2023-05-06T18:53:57.784Z,15.00
2023-05-06T18:56:26.044Z,15.86
2023-05-06T18:58:54.471Z,16.55
2023-05-06T19:01:22.925Z,16.88
2023-05-06T19:03:51.964Z,16.25
2023-05-06T19:06:19.912Z,15.51
2023-05-06T19:08:48.012Z,14.95
2023-05-06T19:11:18.190Z,14.52
2023-05-06T19:13:46.535Z,14.14
2023-05-06T19:16:14.553Z,13.83
2023-05-06T19:18:42.896Z,13.79
2023-05-06T19:21:11.802Z,14.75
2023-05-06T19:23:39.657Z,15.90
2023-05-06T19:26:09.997Z,16.43
2023-05-06T19:28:39.727Z,15.89
2023-05-06T19:31:10.900Z,15.15
2023-05-06T19:33:39.353Z,14.59
2023-05-06T19:36:07.401Z,14.19
2023-05-06T19:38:35.459Z,13.86
2023-05-06T19:41:03.405Z,13.81
2023-05-06T19:43:31.245Z,14.74
2023-05-06T19:45:59.324Z,15.57
2023-05-06T19:48:27.202Z,16.16
2023-05-06T19:50:54.946Z,16.37
2023-05-06T19:53:24.120Z,15.79
2023-05-06T19:55:55.438Z,15.14
2023-05-06T19:58:23.532Z,14.63
2023-05-06T20:00:52.349Z,14.23
2023-05-06T20:03:20.453Z,13.89
2023-05-06T20:05:48.304Z,13.62
2023-05-06T20:08:16.151Z,13.62
2023-05-06T20:10:43.964Z,14.56
2023-05-06T20:13:12.160Z,15.49
2023-05-06T20:15:39.982Z,15.99
2023-05-06T20:18:07.912Z,16.27
2023-05-06T20:20:36.683Z,15.73
2023-05-06T20:23:04.780Z,15.02
2023-05-06T20:25:34.195Z,14.49
2023-05-06T20:28:03.773Z,14.10
2023-05-06T20:30:32.182Z,13.79
2023-05-06T20:33:00.515Z,13.74
2023-05-06T20:35:29.185Z,14.71
2023-05-06T20:37:57.656Z,15.63
2023-05-06T20:40:25.554Z,16.24
2023-05-06T20:42:53.341Z,16.46
2023-05-06T20:45:21.383Z,15.87
2023-05-06T20:47:50.845Z,15.15
2023-05-06T20:50:19.209Z,14.58
2023-05-06T20:52:47.928Z,14.15
2023-05-06T20:55:16.514Z,13.80
2023-05-06T20:57:45.279Z,13.49
2023-05-06T21:00:14.731Z,13.39
2023-05-06T21:02:43.344Z,14.21
2023-05-06T21:05:11.871Z,15.28
2023-05-06T21:07:40.826Z,15.95
2023-05-06T21:10:09.797Z,16.18
2023-05-06T21:12:38.388Z,15.56
2023-05-06T21:15:07.990Z,14.88
2023-05-06T21:17:36.344Z,14.36
2023-05-06T21:20:06.376Z,13.96
2023-05-06T21:22:35.121Z,13.60
2023-05-06T21:25:05.438Z,13.33
2023-05-06T21:27:33.558Z,13.38
2023-05-06T21:30:01.822Z,14.46
2023-05-06T21:32:33.244Z,15.36
2023-05-06T21:35:02.784Z,15.78
2023-05-06T21:37:31.244Z,15.24
2023-05-06T21:40:00.154Z,14.56
2023-05-06T21:42:27.953Z,14.02
2023-05-06T21:44:57.323Z,13.59
2023-05-06T21:47:25.674Z,13.26
2023-05-06T21:49:53.542Z,13.00
2023-05-06T21:52:21.458Z,13.08
2023-05-06T21:54:49.307Z,14.08
2023-05-06T21:57:17.082Z,15.00
2023-05-06T21:59:44.882Z,15.73
2023-05-06T22:02:12.763Z,15.90
2023-05-06T22:04:40.724Z,15.16
2023-05-06T22:07:08.570Z,14.42
2023-05-06T22:09:36.525Z,13.87
2023-05-06T22:12:06.759Z,13.44
2023-05-06T22:14:40.928Z,13.10
2023-05-06T22:17:10.717Z,13.18
2023-05-06T22:19:38.852Z,14.42
2023-05-06T22:22:07.418Z,15.47
2023-05-06T22:24:35.410Z,15.85
2023-05-06T22:27:03.535Z,15.25
2023-05-06T22:29:31.389Z,14.49
2023-05-06T22:31:59.372Z,13.89
2023-05-06T22:34:27.326Z,13.46
2023-05-06T22:36:55.050Z,13.10
2023-05-06T22:39:23.068Z,13.05
2023-05-06T22:41:50.999Z,14.00
2023-05-06T22:44:18.898Z,14.98
2023-05-06T22:46:46.765Z,15.79
2023-05-06T22:49:18.273Z,16.02
2023-05-06T22:51:46.070Z,15.34
2023-05-06T22:54:13.777Z,14.70
2023-05-06T22:56:41.680Z,14.20
2023-05-06T22:59:09.516Z,13.81
2023-05-06T23:01:37.405Z,13.46
2023-05-06T23:04:05.410Z,13.15
2023-05-06T23:06:33.265Z,13.04
2023-05-06T23:09:01.206Z,13.85
2023-05-06T23:11:29.154Z,14.83
2023-05-06T23:13:57.392Z,15.49
2023-05-06T23:16:26.507Z,15.75
2023-05-06T23:18:54.876Z,15.16
2023-05-06T23:21:22.947Z,14.49
2023-05-06T23:23:50.834Z,13.96
2023-05-06T23:26:18.678Z,13.57
2023-05-06T23:28:46.683Z,13.25
2023-05-06T23:31:15.418Z,13.09
2023-05-06T23:33:43.231Z,13.84
2023-05-06T23:36:11.251Z,14.83
2023-05-06T23:38:39.198Z,15.41
2023-05-06T23:41:07.588Z,15.55
2023-05-06T23:43:36.506Z,14.99
2023-05-06T23:46:04.407Z,14.36
2023-05-06T23:48:32.233Z,13.85
2023-05-06T23:50:59.977Z,13.47
2023-05-06T23:53:27.844Z,13.16
2023-05-06T23:55:55.950Z,12.90
2023-05-06T23:58:23.995Z,12.91
